Time;durP1;ratioP1;P1;durP2;ratioP2;P2;SDS_P1;SDS_P2;PMS_P1;PMS_P2;Temp;Humidity;BMP_temperature;BMP_pressure;BME280_temperature;BME280_humidity;BME280_pressure;Samples;Min_cycle;Max_cycle;Signal;HPM_P1;HPM_P2
2022/06/18 00:02:15;;;;;;;;;;;;;;;;;;5065769;28;20010;-59
2022/06/18 00:04:43;;;;;;;;;;;;;;;;;;5050236;28;19917;-59
2022/06/18 00:07:10;;;;;;;;;;;;;;;;;;5048434;28;19908;-58
2022/06/18 00:09:36;;;;;;;;;;;;;;;;;;5065410;28;19909;-58
2022/06/18 00:14:46;;;;;;;;;;;;;;;;;;5045184;28;20039;-58
2022/06/18 00:17:12;;;;;;;;;;;;;;;;;;5045432;28;19995;-59
2022/06/18 00:19:38;;;;;;;;;;;;;;;;;;5064316;28;19919;-59
2022/06/18 00:22:05;;;;;;;;;;;;;;;;;;5065195;28;20212;-59
2022/06/18 00:24:31;;;;;;;;;;;;;;;;;;5063879;28;19958;-59
2022/06/18 00:26:57;;;;;;;;;;;;;;;;;;5045748;28;20457;-59
2022/06/18 00:29:23;;;;;;;;;;;;;;;;;;5046039;28;19967;-59
2022/06/18 00:31:49;;;;;;;;;;;;;;;;;;5044315;28;19909;-59
2022/06/18 00:34:15;;;;;;;;;;;;;;;;;;5059755;28;19912;-58
2022/06/18 00:36:41;;;;;;;;;;;;;;;;;;5064975;28;19915;-58
2022/06/18 00:39:08;;;;;;;;;;;;;;;;;;5057201;28;20359;-58
2022/06/18 00:41:34;;;;;;;;;;;;;;;;;;5057224;28;19916;-58
2022/06/18 00:44:00;;;;;;;;;;;;;;;;;;5064755;28;20272;-58
2022/06/18 00:46:26;;;;;;;;;;;;;;;;;;5067852;28;19916;-58
2022/06/18 00:48:52;;;;;;;;;;;;;;;;;;5066353;28;19905;-58
2022/06/18 00:51:17;;;;;;;;;;;;;;;;;;5067008;28;19908;-58
2022/06/18 00:53:43;;;;;;;;;;;;;;;;;;5066591;28;19916;-58
2022/06/18 00:56:09;;;;;;;;;;;;;;;;;;5066786;28;19966;-58
2022/06/18 00:58:35;;;;;;;;;;;;;;;;;;5066056;28;19916;-58
2022/06/18 01:01:01;;;;;;;;;;;;;;;;;;5046965;28;19911;-58
2022/06/18 01:03:27;;;;;;;;;;;;;;;;;;5047142;28;19908;-58
2022/06/18 01:05:53;;;;;;;;;;;;;;;;;;5047517;28;19951;-58
2022/06/18 01:08:19;;;;;;;;;;;;;;;;;;5046905;28;19904;-58
2022/06/18 01:10:45;;;;;;;;;;;;;;;;;;5046436;28;19931;-58
2022/06/18 01:13:11;;;;;;;;;;;;;;;;;;5046612;28;20011;-58
2022/06/18 01:15:37;;;;;;;;;;;;;;;;;;5046349;28;19904;-58
2022/06/18 01:18:03;;;;;;;;;;;;;;;;;;5046579;28;20269;-58
2022/06/18 01:20:29;;;;;;;;;;;;;;;;;;5049638;28;19912;-58
2022/06/18 01:22:55;;;;;;;;;;;;;;;;;;5067223;28;19993;-58
2022/06/18 01:25:21;;;;;;;;;;;;;;;;;;5066689;28;19904;-58
2022/06/18 01:27:46;;;;;;;;;;;;;;;;;;5066163;28;20462;-58
2022/06/18 01:30:14;;;;;;;;;;;;;;;;;;5066860;28;20002;-58
2022/06/18 01:32:40;;;;;;;;;;;;;;;;;;5066144;28;19917;-58
2022/06/18 01:35:06;;;;;;;;;;;;;;;;;;5066177;28;20284;-58
2022/06/18 01:37:32;;;;;;;;;;;;;;;;;;5066195;28;19931;-58
2022/06/18 01:39:58;;;;;;;;;;;;;;;;;;5064737;28;19920;-58
2022/06/18 01:42:24;;;;;;;;;;;;;;;;;;5067175;28;19931;-58
2022/06/18 01:44:49;;;;;;;;;;;;;;;;;;5069469;28;19904;-58
2022/06/18 01:47:15;;;;;;;;;;;;;;;;;;5069751;28;19965;-58
2022/06/18 01:49:41;;;;;;;;;;;;;;;;;;5070226;28;19974;-58
2022/06/18 01:52:08;;;;;;;;;;;;;;;;;;5070143;28;19904;-58
2022/06/18 01:54:34;;;;;;;;;;;;;;;;;;5069935;28;19947;-58
2022/06/18 01:57:00;;;;;;;;;;;;;;;;;;5070080;28;20371;-58
2022/06/18 01:59:26;;;;;;;;;;;;;;;;;;5070817;28;19900;-58
2022/06/18 02:01:52;;;;;;;;;;;;;;;;;;5069862;28;19912;-58
2022/06/18 02:04:18;;;;;;;;;;;;;;;;;;5068773;28;19919;-58
2022/06/18 02:06:44;;;;;;;;;;;;;;;;;;5069547;28;19915;-58
2022/06/18 02:09:10;;;;;;;;;;;;;;;;;;5069880;28;19904;-58
2022/06/18 02:11:36;;;;;;;;;;;;;;;;;;5069828;28;19931;-58
2022/06/18 02:14:02;;;;;;;;;;;;;;;;;;5069522;28;19999;-58
2022/06/18 02:16:28;;;;;;;;;;;;;;;;;;5070095;28;19905;-58
2022/06/18 02:18:54;;;;;;;;;;;;;;;;;;5069452;28;20017;-58
2022/06/18 02:21:19;;;;;;;;;;;;;;;;;;5069767;28;19904;-58
2022/06/18 02:23:45;;;;;;;;;;;;;;;;;;5069512;28;19911;-58
2022/06/18 02:26:11;;;;;;;;;;;;;;;;;;5053347;28;20005;-58
2022/06/18 02:28:37;;;;;;;;;;;;;;;;;;5049102;28;19975;-58
2022/06/18 02:31:03;;;;;;;;;;;;;;;;;;5049804;28;19966;-58
2022/06/18 02:33:29;;;;;;;;;;;;;;;;;;5049146;28;19919;-58
2022/06/18 02:35:55;;;;;;;;;;;;;;;;;;5060888;28;19912;-58
2022/06/18 02:38:21;;;;;;;;;;;;;;;;;;5069321;28;19911;-58
2022/06/18 02:40:47;;;;;;;;;;;;;;;;;;5069312;28;19983;-58
2022/06/18 02:43:13;;;;;;;;;;;;;;;;;;5069575;28;20031;-58
2022/06/18 02:45:39;;;;;;;;;;;;;;;;;;5069277;28;19973;-58
2022/06/18 02:48:05;;;;;;;;;;;;;;;;;;5069165;28;19911;-58
2022/06/18 02:50:31;;;;;;;;;;;;;;;;;;5056850;28;19909;-58
2022/06/18 02:53:00;;;;;;;;;;;;;;;;;;5049454;28;19931;-58
2022/06/18 02:55:26;;;;;;;;;;;;;;;;;;5048877;28;19999;-58
2022/06/18 02:57:52;;;;;;;;;;;;;;;;;;5048975;28;19995;-58
2022/06/18 03:00:18;;;;;;;;;;;;;;;;;;5049271;28;19913;-58
2022/06/18 03:02:44;;;;;;;;;;;;;;;;;;5048742;28;19920;-58
2022/06/18 03:05:10;;;;;;;;;;;;;;;;;;5060225;28;20379;-58
2022/06/18 03:07:35;;;;;;;;;;;;;;;;;;5068512;28;19911;-58
2022/06/18 03:12:46;;;;;;;;;;;;;;;;;;5050680;28;20020;-58
2022/06/18 03:15:12;;;;;;;;;;;;;;;;;;5058523;28;20007;-58
2022/06/18 03:17:38;;;;;;;;;;;;;;;;;;5068014;28;19950;-58
2022/06/18 03:20:04;;;;;;;;;;;;;;;;;;5068491;28;19935;-58
2022/06/18 03:22:30;;;;;;;;;;;;;;;;;;5068390;28;19908;-58
2022/06/18 03:24:56;;;;;;;;;;;;;;;;;;5069252;28;19946;-58
2022/06/18 03:27:22;;;;;;;;;;;;;;;;;;5068415;28;19905;-58
2022/06/18 03:29:49;;;;;;;;;;;;;;;;;;5067441;28;19912;-58
2022/06/18 03:32:15;;;;;;;;;;;;;;;;;;5068096;28;19908;-58
2022/06/18 03:34:41;;;;;;;;;;;;;;;;;;5063690;28;19931;-58
2022/06/18 03:37:07;;;;;;;;;;;;;;;;;;5048289;28;19904;-58
2022/06/18 03:39:33;;;;;;;;;;;;;;;;;;5047952;28;19904;-58
2022/06/18 03:41:59;;;;;;;;;;;;;;;;;;5048395;28;19915;-58
2022/06/18 03:44:25;;;;;;;;;;;;;;;;;;5048651;28;19907;-58
2022/06/18 03:46:51;;;;;;;;;;;;;;;;;;5047665;28;19905;-58
2022/06/18 03:49:17;;;;;;;;;;;;;;;;;;5051499;28;19912;-58
2022/06/18 03:51:43;;;;;;;;;;;;;;;;;;5067787;28;20003;-58
2022/06/18 03:54:09;;;;;;;;;;;;;;;;;;5067995;28;19951;-58
2022/06/18 03:56:35;;;;;;;;;;;;;;;;;;5066811;28;19916;-58
2022/06/18 03:59:01;;;;;;;;;;;;;;;;;;5067855;28;19911;-58
2022/06/18 04:01:27;;;;;;;;;;;;;;;;;;5068294;28;19904;-58
2022/06/18 04:03:53;;;;;;;;;;;;;;;;;;5068004;28;19908;-58
2022/06/18 04:06:19;;;;;;;;;;;;;;;;;;5067670;28;19908;-58
2022/06/18 04:08:45;;;;;;;;;;;;;;;;;;5067040;28;20053;-58
2022/06/18 04:11:11;;;;;;;;;;;;;;;;;;5066950;28;19995;-58
2022/06/18 04:13:37;;;;;;;;;;;;;;;;;;5067228;28;19915;-58
2022/06/18 04:16:02;;;;;;;;;;;;;;;;;;5066129;28;19908;-58
2022/06/18 04:18:28;;;;;;;;;;;;;;;;;;5067169;28;19943;-58
2022/06/18 04:20:54;;;;;;;;;;;;;;;;;;5068201;28;19958;-58
2022/06/18 04:23:20;;;;;;;;;;;;;;;;;;5068089;28;19912;-58
2022/06/18 04:25:46;;;;;;;;;;;;;;;;;;5067314;28;19950;-58
2022/06/18 04:28:12;;;;;;;;;;;;;;;;;;5067393;28;20015;-58
2022/06/18 04:30:38;;;;;;;;;;;;;;;;;;5066129;28;19909;-58
2022/06/18 04:33:04;;;;;;;;;;;;;;;;;;5066554;28;19912;-59
2022/06/18 04:35:30;;;;;;;;;;;;;;;;;;5067104;28;19908;-58
2022/06/18 04:37:56;;;;;;;;;;;;;;;;;;5067818;28;19901;-58
2022/06/18 04:40:22;;;;;;;;;;;;;;;;;;5066393;28;19950;-58
2022/06/18 04:42:48;;;;;;;;;;;;;;;;;;5046799;28;19915;-58
2022/06/18 04:45:14;;;;;;;;;;;;;;;;;;5047052;28;19905;-58
2022/06/18 04:47:40;;;;;;;;;;;;;;;;;;5046500;28;19916;-58
2022/06/18 04:50:06;;;;;;;;;;;;;;;;;;5047279;28;19915;-58
2022/06/18 04:52:32;;;;;;;;;;;;;;;;;;5046711;28;19909;-58
2022/06/18 04:54:58;;;;;;;;;;;;;;;;;;5046741;28;19912;-58
2022/06/18 04:57:24;;;;;;;;;;;;;;;;;;5047236;28;19909;-58
2022/06/18 04:59:50;;;;;;;;;;;;;;;;;;5046291;28;19956;-58
2022/06/18 05:02:16;;;;;;;;;;;;;;;;;;5065397;28;19912;-58
2022/06/18 05:04:42;;;;;;;;;;;;;;;;;;5066627;28;19909;-58
2022/06/18 05:07:08;;;;;;;;;;;;;;;;;;5066866;28;19911;-58
2022/06/18 05:09:33;;;;;;;;;;;;;;;;;;5066632;28;19904;-58
2022/06/18 05:11:59;;;;;;;;;;;;;;;;;;5066865;28;19940;-58
2022/06/18 05:14:25;;;;;;;;;;;;;;;;;;5067177;28;19919;-58
2022/06/18 05:16:51;;;;;;;;;;;;;;;;;;5048808;28;19904;-58
2022/06/18 05:19:17;;;;;;;;;;;;;;;;;;5051939;28;19909;-58
2022/06/18 05:21:43;;;;;;;;;;;;;;;;;;5052689;28;19909;-58
2022/06/18 05:24:09;;;;;;;;;;;;;;;;;;5053213;28;19908;-58
2022/06/18 05:26:35;;;;;;;;;;;;;;;;;;5052972;28;19915;-58
2022/06/18 05:29:01;;;;;;;;;;;;;;;;;;5054053;28;19944;-58
2022/06/18 05:31:27;;;;;;;;;;;;;;;;;;5053637;28;19908;-58
2022/06/18 05:33:53;;;;;;;;;;;;;;;;;;5053627;28;19920;-58
2022/06/18 05:36:19;;;;;;;;;;;;;;;;;;5089380;28;19912;-58
2022/06/18 05:38:45;;;;;;;;;;;;;;;;;;5083940;28;19912;-56
2022/06/18 05:41:11;;;;;;;;;;;;;;;;;;5054109;28;19911;-58
2022/06/18 05:43:37;;;;;;;;;;;;;;;;;;5055969;28;19912;-59
2022/06/18 05:46:03;;;;;;;;;;;;;;;;;;5093023;28;19934;-58
2022/06/18 05:48:29;;;;;;;;;;;;;;;;;;5086944;28;19909;-58
2022/06/18 05:50:55;;;;;;;;;;;;;;;;;;5073640;28;19918;-59
2022/06/18 05:53:21;;;;;;;;;;;;;;;;;;5073067;28;19983;-58
2022/06/18 05:55:48;;;;;;;;;;;;;;;;;;5072090;28;19934;-59
2022/06/18 05:58:14;;;;;;;;;;;;;;;;;;5072675;28;19908;-59
2022/06/18 06:00:40;;;;;;;;;;;;;;;;;;5072758;28;20732;-58
2022/06/18 06:03:06;;;;;;;;;;;;;;;;;;5072788;28;20406;-58
2022/06/18 06:05:33;;;;;;;;;;;;;;;;;;5071826;28;19944;-58
2022/06/18 06:07:59;;;;;;;;;;;;;;;;;;5082219;28;19961;-58
2022/06/18 06:13:10;;;;;;;;;;;;;;;;;;5072964;28;20008;-58
2022/06/18 06:15:35;;;;;;;;;;;;;;;;;;5072414;28;20026;-58
2022/06/18 06:18:01;;;;;;;;;;;;;;;;;;5072847;28;19997;-59
2022/06/18 06:20:27;;;;;;;;;;;;;;;;;;5074607;28;19904;-59
2022/06/18 06:22:53;;;;;;;;;;;;;;;;;;5073649;28;19913;-58
2022/06/18 06:25:19;;;;;;;;;;;;;;;;;;5078989;28;19923;-59
2022/06/18 06:27:45;;;;;;;;;;;;;;;;;;5064816;28;20004;-58
2022/06/18 06:30:12;;;;;;;;;;;;;;;;;;5063078;28;19924;-59
2022/06/18 06:32:38;;;;;;;;;;;;;;;;;;5074021;28;19912;-59
2022/06/18 06:35:05;;;;;;;;;;;;;;;;;;5081210;28;19999;-58
2022/06/18 06:37:31;;;;;;;;;;;;;;;;;;5087926;28;20493;-59
2022/06/18 06:39:57;;;;;;;;;;;;;;;;;;5074382;28;19904;-57
2022/06/18 06:42:23;;;;;;;;;;;;;;;;;;5069912;28;19943;-57
2022/06/18 06:44:49;;;;;;;;;;;;;;;;;;5070065;28;19904;-57
2022/06/18 06:47:16;;;;;;;;;;;;;;;;;;5072996;28;19912;-57
2022/06/18 06:49:42;;;;;;;;;;;;;;;;;;5068957;28;20394;-57
2022/06/18 06:52:09;;;;;;;;;;;;;;;;;;5068874;28;19942;-57
2022/06/18 06:54:35;;;;;;;;;;;;;;;;;;5068327;28;19920;-58
2022/06/18 06:59:45;;;;;;;;;;;;;;;;;;5067990;28;19943;-57
2022/06/18 07:02:11;;;;;;;;;;;;;;;;;;5071482;28;20352;-57
2022/06/18 07:04:37;;;;;;;;;;;;;;;;;;5073455;28;19908;-57
2022/06/18 07:07:03;;;;;;;;;;;;;;;;;;5069736;28;19953;-57
2022/06/18 07:09:29;;;;;;;;;;;;;;;;;;5070479;28;19908;-57
2022/06/18 07:11:55;;;;;;;;;;;;;;;;;;5067971;28;19940;-57
2022/06/18 07:14:21;;;;;;;;;;;;;;;;;;5063805;28;20014;-57
2022/06/18 07:16:47;;;;;;;;;;;;;;;;;;5075351;28;19985;-57
2022/06/18 07:19:13;;;;;;;;;;;;;;;;;;5088442;28;20432;-57
2022/06/18 07:21:39;;;;;;;;;;;;;;;;;;5088397;28;19926;-57
2022/06/18 07:24:05;;;;;;;;;;;;;;;;;;5088717;28;19904;-58
2022/06/18 07:26:31;;;;;;;;;;;;;;;;;;5060956;28;19912;-57
2022/06/18 07:28:58;;;;;;;;;;;;;;;;;;5068268;28;19986;-57
2022/06/18 07:31:24;;;;;;;;;;;;;;;;;;5068926;28;20010;-57
2022/06/18 07:33:51;;;;;;;;;;;;;;;;;;5068073;28;20018;-57
2022/06/18 07:36:17;;;;;;;;;;;;;;;;;;5066733;28;19934;-57
2022/06/18 07:38:43;;;;;;;;;;;;;;;;;;5059120;28;19912;-57
2022/06/18 07:41:09;;;;;;;;;;;;;;;;;;5052432;28;20066;-57
2022/06/18 07:43:35;;;;;;;;;;;;;;;;;;5064518;28;19916;-57
2022/06/18 07:46:01;;;;;;;;;;;;;;;;;;5067302;28;20027;-58
2022/06/18 07:48:27;;;;;;;;;;;;;;;;;;5066953;28;19934;-57
2022/06/18 07:50:53;;;;;;;;;;;;;;;;;;5067269;28;19908;-57
2022/06/18 07:53:19;;;;;;;;;;;;;;;;;;5067286;28;19916;-57
2022/06/18 07:55:45;;;;;;;;;;;;;;;;;;5066485;28;19912;-57
2022/06/18 07:58:11;;;;;;;;;;;;;;;;;;5067685;28;19909;-57
2022/06/18 08:00:39;;;;;;;;;;;;;;;;;;5068063;28;19919;-57
2022/06/18 08:03:05;;;;;;;;;;;;;;;;;;5052588;28;19905;-58
2022/06/18 08:05:31;;;;;;;;;;;;;;;;;;5081954;28;20279;-58
2022/06/18 08:07:57;;;;;;;;;;;;;;;;;;5063368;28;19912;-58
2022/06/18 08:10:23;;;;;;;;;;;;;;;;;;5055692;28;19978;-57
2022/06/18 08:12:49;;;;;;;;;;;;;;;;;;5061274;28;19912;-58
2022/06/18 08:15:15;;;;;;;;;;;;;;;;;;5059514;28;19913;-58
2022/06/18 08:17:41;;;;;;;;;;;;;;;;;;5068511;28;19934;-58
2022/06/18 08:20:08;;;;;;;;;;;;;;;;;;5066534;28;20027;-58
2022/06/18 08:22:34;;;;;;;;;;;;;;;;;;5067157;28;19904;-58
2022/06/18 08:25:00;;;;;;;;;;;;;;;;;;5067400;28;20308;-58
2022/06/18 08:27:25;;;;;;;;;;;;;;;;;;5064493;28;19908;-58
2022/06/18 08:29:51;;;;;;;;;;;;;;;;;;5066684;28;19908;-58
2022/06/18 08:32:17;;;;;;;;;;;;;;;;;;5066540;28;20589;-58
2022/06/18 08:34:43;;;;;;;;;;;;;;;;;;5070025;28;19912;-58
2022/06/18 08:37:09;;;;;;;;;;;;;;;;;;5061110;28;19909;-57
2022/06/18 08:39:35;;;;;;;;;;;;;;;;;;5064064;28;19909;-58
2022/06/18 08:42:02;;;;;;;;;;;;;;;;;;5073468;28;19912;-58
2022/06/18 08:44:28;;;;;;;;;;;;;;;;;;5066428;28;19912;-57
2022/06/18 08:46:54;;;;;;;;;;;;;;;;;;5067609;28;20368;-58
2022/06/18 08:49:20;;;;;;;;;;;;;;;;;;5065571;28;19912;-57
2022/06/18 08:51:46;;;;;;;;;;;;;;;;;;5066088;28;19912;-57
2022/06/18 08:54:12;;;;;;;;;;;;;;;;;;5065532;28;19916;-57
2022/06/18 08:56:38;;;;;;;;;;;;;;;;;;5066479;28;19956;-57
2022/06/18 08:59:04;;;;;;;;;;;;;;;;;;5066768;28;19950;-57
2022/06/18 09:01:30;;;;;;;;;;;;;;;;;;5069990;28;19916;-58
2022/06/18 09:03:56;;;;;;;;;;;;;;;;;;5049104;28;19912;-58
2022/06/18 09:06:22;;;;;;;;;;;;;;;;;;5047933;28;20002;-57
2022/06/18 09:08:48;;;;;;;;;;;;;;;;;;5046083;28;19912;-57
2022/06/18 09:11:14;;;;;;;;;;;;;;;;;;5069854;28;20444;-57
2022/06/18 09:13:41;;;;;;;;;;;;;;;;;;5045152;28;20015;-58
2022/06/18 09:16:06;;;;;;;;;;;;;;;;;;5044900;28;19975;-57
2022/06/18 09:18:34;;;;;;;;;;;;;;;;;;5044553;28;19913;-58
2022/06/18 09:21:01;;;;;;;;;;;;;;;;;;5044854;28;19905;-58
2022/06/18 09:23:27;;;;;;;;;;;;;;;;;;5045868;28;19909;-57
2022/06/18 09:25:54;;;;;;;;;;;;;;;;;;5045236;28;19913;-58
2022/06/18 09:28:19;;;;;;;;;;;;;;;;;;5044294;28;20296;-57
2022/06/18 09:30:45;;;;;;;;;;;;;;;;;;5044621;28;19915;-58
2022/06/18 09:33:11;;;;;;;;;;;;;;;;;;5044901;28;19908;-57
2022/06/18 09:35:37;;;;;;;;;;;;;;;;;;5044588;28;20027;-57
2022/06/18 09:38:03;;;;;;;;;;;;;;;;;;5044971;28;19966;-58
2022/06/18 09:40:31;;;;;;;;;;;;;;;;;;5044478;28;19947;-58
2022/06/18 09:42:57;;;;;;;;;;;;;;;;;;5045179;28;19904;-58
2022/06/18 09:45:24;;;;;;;;;;;;;;;;;;5045335;28;19912;-58
2022/06/18 09:47:52;;;;;;;;;;;;;;;;;;5044444;28;20313;-58
2022/06/18 09:50:17;;;;;;;;;;;;;;;;;;5044624;28;19916;-58
2022/06/18 09:52:43;;;;;;;;;;;;;;;;;;5044460;28;19908;-58
2022/06/18 09:55:09;;;;;;;;;;;;;;;;;;5044821;28;19935;-57
2022/06/18 09:57:35;;;;;;;;;;;;;;;;;;5044193;28;19940;-58
2022/06/18 10:00:03;;;;;;;;;;;;;;;;;;5044712;28;20364;-58
2022/06/18 10:02:30;;;;;;;;;;;;;;;;;;5044398;28;19909;-58
2022/06/18 10:07:41;;;;;;;;;;;;;;;;;;5047913;28;19931;-58
2022/06/18 10:10:09;;;;;;;;;;;;;;;;;;5048564;28;19908;-58
2022/06/18 10:12:35;;;;;;;;;;;;;;;;;;5047991;28;20011;-58
2022/06/18 10:15:02;;;;;;;;;;;;;;;;;;5048484;28;20407;-58
2022/06/18 10:17:29;;;;;;;;;;;;;;;;;;5047931;28;19904;-58
2022/06/18 10:19:56;;;;;;;;;;;;;;;;;;5048752;28;20417;-58
2022/06/18 10:22:23;;;;;;;;;;;;;;;;;;5061141;28;19908;-58
2022/06/18 10:24:49;;;;;;;;;;;;;;;;;;5066591;28;19919;-57
2022/06/18 10:27:16;;;;;;;;;;;;;;;;;;5057755;28;20449;-59
2022/06/18 10:29:42;;;;;;;;;;;;;;;;;;5066544;28;19908;-57
2022/06/18 10:32:08;;;;;;;;;;;;;;;;;;5067881;28;20467;-57
2022/06/18 10:34:35;;;;;;;;;;;;;;;;;;5067756;28;20279;-57
2022/06/18 10:37:01;;;;;;;;;;;;;;;;;;5054507;28;20454;-57
2022/06/18 10:39:27;;;;;;;;;;;;;;;;;;5064217;28;19908;-58
2022/06/18 10:41:53;;;;;;;;;;;;;;;;;;5090154;28;20306;-57
2022/06/18 10:44:19;;;;;;;;;;;;;;;;;;5087975;28;19998;-57
2022/06/18 10:46:45;;;;;;;;;;;;;;;;;;5089373;28;19904;-57
2022/06/18 10:49:11;;;;;;;;;;;;;;;;;;5080967;28;20436;-58
2022/06/18 10:51:37;;;;;;;;;;;;;;;;;;5052817;28;19904;-58
2022/06/18 10:54:03;;;;;;;;;;;;;;;;;;5086380;28;20006;-58
2022/06/18 10:56:29;;;;;;;;;;;;;;;;;;5088748;28;19916;-58
2022/06/18 10:58:55;;;;;;;;;;;;;;;;;;5089851;28;19906;-57
2022/06/18 11:01:21;;;;;;;;;;;;;;;;;;5087841;28;19908;-57
2022/06/18 11:03:46;;;;;;;;;;;;;;;;;;5077439;28;19908;-58
2022/06/18 11:06:12;;;;;;;;;;;;;;;;;;5075775;28;19916;-58
2022/06/18 11:08:38;;;;;;;;;;;;;;;;;;5072394;28;19912;-58
2022/06/18 11:11:04;;;;;;;;;;;;;;;;;;5072204;28;19908;-57
2022/06/18 11:13:31;;;;;;;;;;;;;;;;;;5069284;28;19913;-58
2022/06/18 11:15:57;;;;;;;;;;;;;;;;;;5077763;28;19905;-58
2022/06/18 11:18:24;;;;;;;;;;;;;;;;;;5068993;28;19919;-58
2022/06/18 11:20:50;;;;;;;;;;;;;;;;;;5069282;28;19960;-60
2022/06/18 11:23:16;;;;;;;;;;;;;;;;;;5065073;28;19983;-58
2022/06/18 11:25:42;;;;;;;;;;;;;;;;;;5046553;28;19916;-58
2022/06/18 11:28:08;;;;;;;;;;;;;;;;;;5069478;28;20002;-58
2022/06/18 11:30:34;;;;;;;;;;;;;;;;;;5057889;28;19999;-58
2022/06/18 11:33:01;;;;;;;;;;;;;;;;;;5061401;28;20295;-57
2022/06/18 11:35:28;;;;;;;;;;;;;;;;;;5067405;28;20315;-58
2022/06/18 11:37:54;;;;;;;;;;;;;;;;;;5067155;28;20189;-58
2022/06/18 11:40:20;;;;;;;;;;;;;;;;;;5066661;28;19909;-58
2022/06/18 11:42:46;;;;;;;;;;;;;;;;;;5058058;28;19940;-58
2022/06/18 11:45:13;;;;;;;;;;;;;;;;;;5060185;28;19912;-59
2022/06/18 11:47:39;;;;;;;;;;;;;;;;;;5067736;28;20436;-58
2022/06/18 11:50:04;;;;;;;;;;;;;;;;;;5069921;28;19942;-58
2022/06/18 11:52:30;;;;;;;;;;;;;;;;;;5066156;28;19911;-58
2022/06/18 11:54:56;;;;;;;;;;;;;;;;;;5068220;28;19912;-58
2022/06/18 11:57:22;;;;;;;;;;;;;;;;;;5066294;28;19910;-58
2022/06/18 11:59:52;;;;;;;;;;;;;;;;;;5065141;28;19935;-58
2022/06/18 12:02:19;;;;;;;;;;;;;;;;;;5066222;28;19912;-58
2022/06/18 12:04:45;;;;;;;;;;;;;;;;;;5063495;28;20347;-58
2022/06/18 12:07:10;;;;;;;;;;;;;;;;;;5071134;28;19946;-58
2022/06/18 12:09:37;;;;;;;;;;;;;;;;;;5059576;28;19905;-58
2022/06/18 12:12:03;;;;;;;;;;;;;;;;;;5049904;28;20319;-58
2022/06/18 12:14:29;;;;;;;;;;;;;;;;;;5082732;28;19923;-58
2022/06/18 12:16:55;;;;;;;;;;;;;;;;;;5086280;28;19994;-58
2022/06/18 12:19:22;;;;;;;;;;;;;;;;;;5085527;28;20022;-58
2022/06/18 12:21:48;;;;;;;;;;;;;;;;;;5085642;28;19907;-59
2022/06/18 12:24:14;;;;;;;;;;;;;;;;;;5064163;28;20361;-59
2022/06/18 12:26:40;;;;;;;;;;;;;;;;;;5078131;28;20303;-59
2022/06/18 12:29:07;;;;;;;;;;;;;;;;;;5064778;28;19909;-59
2022/06/18 12:31:34;;;;;;;;;;;;;;;;;;5065400;28;19916;-59
2022/06/18 12:34:01;;;;;;;;;;;;;;;;;;5065440;28;19912;-59
2022/06/18 12:36:27;;;;;;;;;;;;;;;;;;5066625;28;19915;-58
2022/06/18 12:38:53;;;;;;;;;;;;;;;;;;5066581;28;19916;-59
2022/06/18 12:41:20;;;;;;;;;;;;;;;;;;5074127;28;20423;-59
2022/06/18 12:43:47;;;;;;;;;;;;;;;;;;5061074;28;20345;-58
2022/06/18 12:46:13;;;;;;;;;;;;;;;;;;5057724;28;19965;-57
2022/06/18 12:48:39;;;;;;;;;;;;;;;;;;5065536;28;19912;-58
2022/06/18 12:51:05;;;;;;;;;;;;;;;;;;5067460;28;19912;-58
2022/06/18 12:53:31;;;;;;;;;;;;;;;;;;5064571;28;19976;-58
2022/06/18 12:55:58;;;;;;;;;;;;;;;;;;5084560;28;19912;-59
2022/06/18 12:58:25;;;;;;;;;;;;;;;;;;5085232;28;19908;-58
2022/06/18 13:00:51;;;;;;;;;;;;;;;;;;5067481;28;21725;-58
2022/06/18 13:03:17;;;;;;;;;;;;;;;;;;5065270;28;19963;-61
2022/06/18 13:05:43;;;;;;;;;;;;;;;;;;5060072;28;19908;-58
2022/06/18 13:08:09;;;;;;;;;;;;;;;;;;5086234;28;19916;-58
2022/06/18 13:10:35;;;;;;;;;;;;;;;;;;5074402;28;19912;-59
2022/06/18 13:13:01;;;;;;;;;;;;;;;;;;5057921;28;19919;-58
2022/06/18 13:15:32;;;;;;;;;;;;;;;;;;5065257;28;19915;-58
2022/06/18 13:17:58;;;;;;;;;;;;;;;;;;5063564;28;19912;-58
2022/06/18 13:20:24;;;;;;;;;;;;;;;;;;5067828;28;19966;-59
2022/06/18 13:22:50;;;;;;;;;;;;;;;;;;5064902;28;19943;-58
2022/06/18 13:28:10;;;;;;;;;;;;;;;;;;5044993;28;19916;-60
2022/06/18 13:30:36;;;;;;;;;;;;;;;;;;5071921;28;20279;-58
2022/06/18 13:33:02;;;;;;;;;;;;;;;;;;5064527;28;20159;-58
2022/06/18 13:35:29;;;;;;;;;;;;;;;;;;5064895;28;19904;-60
2022/06/18 13:37:55;;;;;;;;;;;;;;;;;;5076758;28;19916;-58
2022/06/18 13:40:21;;;;;;;;;;;;;;;;;;5067742;28;19999;-59
2022/06/18 13:42:47;;;;;;;;;;;;;;;;;;5080739;28;20260;-59
2022/06/18 13:45:13;;;;;;;;;;;;;;;;;;5077897;28;19995;-58
2022/06/18 13:47:39;;;;;;;;;;;;;;;;;;5080785;28;20030;-59
2022/06/18 13:50:05;;;;;;;;;;;;;;;;;;5081061;28;19955;-58
2022/06/18 13:52:31;;;;;;;;;;;;;;;;;;5088311;28;19908;-58
2022/06/18 13:54:57;;;;;;;;;;;;;;;;;;5074680;28;20116;-58
2022/06/18 13:57:23;;;;;;;;;;;;;;;;;;5070268;28;19912;-57
2022/06/18 13:59:49;;;;;;;;;;;;;;;;;;5068976;28;19913;-58
2022/06/18 14:02:15;;;;;;;;;;;;;;;;;;5068454;28;19923;-59
2022/06/18 14:04:41;;;;;;;;;;;;;;;;;;5069945;28;19995;-58
2022/06/18 14:07:07;;;;;;;;;;;;;;;;;;5066549;28;19947;-59
2022/06/18 14:09:33;;;;;;;;;;;;;;;;;;5068216;28;19913;-59
2022/06/18 14:11:59;;;;;;;;;;;;;;;;;;5068138;28;19911;-57
2022/06/18 14:14:25;;;;;;;;;;;;;;;;;;5075224;28;20447;-58
2022/06/18 14:16:51;;;;;;;;;;;;;;;;;;5090452;28;19904;-58
2022/06/18 14:19:17;;;;;;;;;;;;;;;;;;5088169;28;19908;-58
2022/06/18 14:21:43;;;;;;;;;;;;;;;;;;5075165;28;19912;-60
2022/06/18 14:24:09;;;;;;;;;;;;;;;;;;5060635;28;19905;-58
2022/06/18 14:26:35;;;;;;;;;;;;;;;;;;5070273;28;20284;-59
2022/06/18 14:29:01;;;;;;;;;;;;;;;;;;5083083;28;19904;-58
2022/06/18 14:31:27;;;;;;;;;;;;;;;;;;5069312;28;19992;-58
2022/06/18 14:33:53;;;;;;;;;;;;;;;;;;5069918;28;19957;-58
2022/06/18 14:36:19;;;;;;;;;;;;;;;;;;5069548;28;19950;-58
2022/06/18 14:38:45;;;;;;;;;;;;;;;;;;5069023;28;19989;-57
2022/06/18 14:43:56;;;;;;;;;;;;;;;;;;5049136;28;20021;-58
2022/06/18 14:46:21;;;;;;;;;;;;;;;;;;5049727;28;19908;-59
2022/06/18 14:48:47;;;;;;;;;;;;;;;;;;5047428;28;20500;-58
2022/06/18 14:51:13;;;;;;;;;;;;;;;;;;5046208;28;19909;-58
2022/06/18 14:53:40;;;;;;;;;;;;;;;;;;5047178;28;19912;-58
2022/06/18 14:56:07;;;;;;;;;;;;;;;;;;5047260;28;19919;-58
2022/06/18 14:58:33;;;;;;;;;;;;;;;;;;5047204;28;19905;-58
2022/06/18 15:00:59;;;;;;;;;;;;;;;;;;5047661;28;19905;-58
2022/06/18 15:03:25;;;;;;;;;;;;;;;;;;5047270;28;19912;-58
2022/06/18 15:05:50;;;;;;;;;;;;;;;;;;5047628;28;19963;-58
2022/06/18 15:08:16;;;;;;;;;;;;;;;;;;5047214;28;20023;-58
2022/06/18 15:10:42;;;;;;;;;;;;;;;;;;5046777;28;19909;-59
2022/06/18 15:13:08;;;;;;;;;;;;;;;;;;5047338;28;19908;-59
2022/06/18 15:15:53;;;;;;;;;;;;;;;;;;5046987;28;20351;-58
2022/06/18 15:20:57;;;;;;;;;;;;;;;;;;5046639;28;20534;-58
2022/06/18 15:23:33;;;;;;;;;;;;;;;;;;5047939;28;20015;-58
2022/06/18 15:25:59;;;;;;;;;;;;;;;;;;5046966;28;19904;-58
2022/06/18 15:28:25;;;;;;;;;;;;;;;;;;5046856;28;20428;-59
2022/06/18 15:30:51;;;;;;;;;;;;;;;;;;5047759;28;19930;-58
2022/06/18 15:33:18;;;;;;;;;;;;;;;;;;5047354;28;19951;-58
2022/06/18 15:35:45;;;;;;;;;;;;;;;;;;5046601;28;19916;-58
2022/06/18 15:38:11;;;;;;;;;;;;;;;;;;5046931;28;19905;-58
2022/06/18 15:40:38;;;;;;;;;;;;;;;;;;5046342;28;19927;-58
2022/06/18 15:43:05;;;;;;;;;;;;;;;;;;5047007;28;19901;-58
2022/06/18 15:45:31;;;;;;;;;;;;;;;;;;5046276;28;20012;-58
2022/06/18 15:47:58;;;;;;;;;;;;;;;;;;5046615;28;20427;-58
2022/06/18 15:50:24;;;;;;;;;;;;;;;;;;5046696;28;20287;-59
2022/06/18 15:52:52;;;;;;;;;;;;;;;;;;5046805;28;19912;-58
2022/06/18 15:55:18;;;;;;;;;;;;;;;;;;5046516;28;19913;-58
2022/06/18 15:57:44;;;;;;;;;;;;;;;;;;5045935;28;19909;-57
2022/06/18 16:00:10;;;;;;;;;;;;;;;;;;5045609;28;20338;-58
2022/06/18 16:02:36;;;;;;;;;;;;;;;;;;5045885;28;20106;-58
2022/06/18 16:05:03;;;;;;;;;;;;;;;;;;5045964;28;20287;-59
2022/06/18 16:07:29;;;;;;;;;;;;;;;;;;5045868;28;19905;-58
2022/06/18 16:09:55;;;;;;;;;;;;;;;;;;5045883;28;20338;-58
2022/06/18 16:12:20;;;;;;;;;;;;;;;;;;5046906;28;20399;-59
2022/06/18 16:14:47;;;;;;;;;;;;;;;;;;5046188;28;19909;-58
2022/06/18 16:17:13;;;;;;;;;;;;;;;;;;5046428;28;19904;-58
2022/06/18 16:19:39;;;;;;;;;;;;;;;;;;5045686;28;20300;-58
2022/06/18 16:22:06;;;;;;;;;;;;;;;;;;5045886;28;19912;-59
2022/06/18 16:24:33;;;;;;;;;;;;;;;;;;5045595;28;19958;-58
2022/06/18 16:26:59;;;;;;;;;;;;;;;;;;5061092;28;20306;-58
2022/06/18 16:29:26;;;;;;;;;;;;;;;;;;5045856;28;20012;-58
2022/06/18 16:31:52;;;;;;;;;;;;;;;;;;5046349;28;19927;-58
2022/06/18 16:34:18;;;;;;;;;;;;;;;;;;5045864;28;20439;-59
2022/06/18 16:36:44;;;;;;;;;;;;;;;;;;5045709;28;20402;-58
2022/06/18 16:39:10;;;;;;;;;;;;;;;;;;5045554;28;19936;-58
2022/06/18 16:41:37;;;;;;;;;;;;;;;;;;5045563;28;19935;-58
2022/06/18 16:44:03;;;;;;;;;;;;;;;;;;5045690;28;19915;-58
2022/06/18 16:46:29;;;;;;;;;;;;;;;;;;5045289;28;20350;-59
2022/06/18 16:48:55;;;;;;;;;;;;;;;;;;5045369;28;20002;-59
2022/06/18 16:51:21;;;;;;;;;;;;;;;;;;5046295;28;20046;-58
2022/06/18 16:53:47;;;;;;;;;;;;;;;;;;5044934;28;19999;-58
2022/06/18 16:56:13;;;;;;;;;;;;;;;;;;5045352;28;19920;-58
2022/06/18 16:58:39;;;;;;;;;;;;;;;;;;5044909;28;19905;-59
2022/06/18 17:01:05;;;;;;;;;;;;;;;;;;5045289;28;19905;-58